Pagrindinis puslapis
METAR-TAF:

METAR-TAF

Oro uostai :

Burgasas, Bulgarija

platuma: 42-29N, ilguma: 027-29E, Aukštis: 16 m

Dabartinis oras

Ataskaita buvo paskelbta 26 minutes, ne 18:00 UTC
Vėjas 8 kt iš Rytų
Temperatūra 19°C
Drėgmė 64%
Slėgis 1023 hPa
Matomumas 10 km arba daugiau
nėra debesų žemiau 1500 m ir nėra kamuolinių lietaus debesų

METAR: LBBG 151800Z 08008KT CAVOK 19/12 Q1023 NOSIG

Laikas: 21:26 (18:26 UTC)

Prognozė

Ataskaita buvo paskelbta 1 valandą ir 26 minutes, ne 17:00 UTC
Prognozė galioja nuo 15 metu 18 UTC su 16 metu 18 UTC
Vėjas 10 kt iš Rytų
Matomumas 10 km arba daugiau
nėra debesų žemiau 1500 m ir nėra kamuolinių lietaus debesų
Tapsmas
nuo 15 metu 19 UTC su 15 metu 21 UTC
Vėjas 4 kt nuo kintamojo kryptimis
Laikinai
nuo 16 metu 01 UTC su 16 metu 05 UTC
Matomumas: 4000 m
rūkana
Tapsmas
nuo 16 metu 10 UTC su 16 metu 12 UTC
Vėjas 12 kt iš Rytų/Pietryčių

TAF: LBBG 151700Z 1518/1618 09010KT CAVOK BECMG 1519/1521 VRB04KT TEMPO 1601/1605 4000 BR BECMG 1610/1612 12012KT

Orai ataskaitas ir orų prognozės (METAR, TAF).

turimą stotys yra geltonos ir raudonos taškus žemėlapyje.

Perkelti pele per norėdami pamatyti stoties vardą.

Tada spustelėkite, norėdami matyti oro stebėjimo ir prognozės.

Norėdami pakeisti žemėlapį: spustelėkite ant žalios mygtukų su juodo kryžiaus žemyn,; žalią mygtuką su brūkšneliu, jei norite nutolinti; arba žalių rodyklių gretimoms žemėlapius.


METAR-TAF: